Latest Weather Observations for Swan Hill

IDV60801

Issued at 12:34 pm EDT Sunday 22 January 2017 (issued every 30 minutes, with the page automatically refreshed every 10 minutes)

About weather observations | Map of weather stations | Latest weather observations for VIC | Other Formats
Station Details ID: 077094 Name: SWAN HILL AERODROME Lat: -35.38 Lon: 143.54 Height: 71.0 m
Data from the previous 72 hours. | See also: Recent months at Swan Hill
Date/Time
EDT
Temp
°C
App
Temp
°C
Dew
Point
°C
Rel
Hum
%
Delta-T
°C
Wind Press
QNH
hPa
Press
MSL
hPa
Rain since
9am
mm
Dir  Spd
km/h
Gust
km/h
Spd
kts
Gust
kts
22/12:00pm 28.8 26.0 8.5 28 11.2 NE 13 22 7 12 1012.8 1012.5 0.0
22/11:30am 27.6 25.2 9.9 33 9.9 NE 13 19 7 10 1013.2 1012.9 0.0
22/11:00am 25.9 23.4 9.7 36 9.0 ENE 13 19 7 10 1013.5 1013.2 0.0
22/10:30am 24.9 22.9 10.0 39 8.2 E 11 17 6 9 1013.6 1013.3 0.0
22/10:00am 23.2 20.3 9.6 42 7.4 ESE 15 20 8 11 1013.9 1013.6 0.0
22/09:30am 22.3 19.4 9.5 44 6.9 ESE 15 24 8 13 1014.3 1014.0 0.0
22/09:00am 20.5 16.6 9.4 49 5.9 ESE 20 30 11 16 1014.4 1014.1 0.0
22/08:30am 19.5 15.5 9.1 51 5.5 SE 20 28 11 15 1014.5 1014.2 -
22/08:00am 17.4 14.9 9.8 61 4.0 SE 13 20 7 11 1014.3 1014.0 -
22/07:30am 15.2 12.7 9.8 70 2.8 SE 13 19 7 10 1014.2 1013.9 -
22/07:00am 11.9 9.8 8.4 79 1.7 SSE 9 13 5 7 1013.9 1013.6 -
22/06:30am 11.8 9.6 7.9 77 1.9 SE 9 13 5 7 1013.7 1013.4 -
22/06:00am 11.8 9.9 7.5 75 2.1 SE 7 11 4 6 1013.6 1013.3 -
22/05:30am 12.7 10.4 7.6 71 2.5 SSE 9 15 5 8 1013.4 1013.1 -
22/05:00am 13.8 10.4 7.8 67 3.0 SSE 15 19 8 10 1013.3 1013.0 -
22/04:30am 14.4 11.9 8.1 66 3.2 SSE 11 17 6 9 1013.2 1012.9 -
22/04:00am 14.4 12.2 7.7 64 3.3 SSE 9 13 5 7 1013.2 1012.9 -
22/03:30am 15.3 13.0 7.6 60 3.8 SE 9 13 5 7 1013.3 1013.0 -
22/03:00am 16.0 13.4 7.7 58 4.2 SSE 11 19 6 10 1013.5 1013.2 -
22/02:30am 17.1 14.6 8.0 55 4.6 SE 11 17 6 9 1013.5 1013.2 -
22/02:00am 17.9 15.5 8.5 54 4.9 SE 11 15 6 8 1013.6 1013.3 -
22/01:30am 18.9 16.5 8.8 52 5.3 SE 11 15 6 8 1013.6 1013.3 -
22/01:00am 19.4 - 9.0 51 5.5 - - - - - 1013.6 1013.3 -
22/12:30am 19.5 17.3 9.4 52 5.4 SE 11 17 6 9 1013.6 - 0.0
22/12:00am 19.8 17.2 9.4 51 5.5 SE 13 17 7 9 1013.5 1013.2 0.0
 
Date/Time
EDT
Temp
°C
App
Temp
°C
Dew
Point
°C
Rel
Hum
%
Delta-T
°C
Wind Press
QNH
hPa
Press
MSL
hPa
Rain since
9am
mm
Dir  Spd
km/h
Gust
km/h
Spd
kts
Gust
kts
21/11:30pm 19.9 17.4 8.3 47 6.0 SE 11 15 6 8 1013.5 1013.2 0.0
21/11:00pm 20.6 17.8 6.9 41 7.0 SSE 11 13 6 7 1013.5 1013.2 0.0
21/10:30pm 20.9 18.6 5.7 37 7.6 SSE 7 9 4 5 1013.4 1013.1 0.0
21/10:00pm 22.0 19.2 5.0 33 8.4 SSE 9 13 5 7 1013.2 1012.9 0.0
21/09:30pm 23.3 20.3 4.3 29 9.4 SSE 9 13 5 7 1012.9 1012.6 0.0
21/09:00pm 24.9 21.5 4.1 26 10.3 S 11 13 6 7 1012.6 1012.3 0.0
21/08:30pm 27.1 23.6 3.6 22 11.8 SSE 11 15 6 8 1012.3 1012.0 0.0
21/08:00pm 28.6 24.6 2.7 19 12.9 SSE 13 19 7 10 1012.0 1011.7 0.0
21/07:30pm 29.4 24.6 2.6 18 13.4 SE 17 22 9 12 1011.6 1011.3 0.0
21/07:00pm 29.8 25.2 3.7 19 13.3 SE 17 28 9 15 1011.1 1010.8 0.0
21/06:30pm 30.1 25.6 2.4 17 13.8 S 15 24 8 13 1011.1 1010.8 0.0
21/06:00pm 29.8 24.8 1.3 16 14.0 S 17 32 9 17 1011.1 1010.8 0.0
21/05:30pm 29.8 24.7 2.9 18 13.5 SSE 19 30 10 16 1011.3 1011.0 0.0
21/05:00pm 29.8 24.5 2.1 17 13.7 SSE 19 30 10 16 1011.6 1011.3 0.0
21/04:30pm 29.2 24.0 2.5 18 13.3 SSE 19 30 10 16 1011.7 1011.4 0.0
21/04:00pm 28.9 24.2 3.0 19 13.0 S 17 32 9 17 1012.0 1011.7 0.0
21/03:30pm 28.4 23.9 4.0 21 12.4 S 17 30 9 16 1012.3 1012.0 0.0
21/03:00pm 27.8 23.4 2.8 20 12.4 S 15 28 8 15 1012.6 1012.3 0.0
21/02:30pm 27.3 22.8 2.4 20 12.2 S 15 28 8 15 1012.8 1012.5 0.0
21/02:00pm 26.7 22.7 5.1 25 11.1 SSE 15 28 8 15 1013.1 1012.8 0.0
21/01:30pm 25.6 20.7 4.1 25 10.7 SSE 19 30 10 16 1013.3 1013.0 0.0
21/01:00pm 24.6 19.8 4.9 28 9.9 SSE 19 28 10 15 1013.6 1013.3 0.0
21/12:30pm 23.7 19.5 5.6 31 9.2 S 17 28 9 15 1013.9 1013.6 0.0
21/12:00pm 22.6 18.3 5.1 32 8.7 SSE 17 24 9 13 1014.1 1013.8 0.0
21/11:30am 21.4 17.0 4.9 34 8.1 SSE 17 26 9 14 1014.3 1014.0 0.0
21/11:00am 19.9 15.7 5.9 40 7.0 SE 17 26 9 14 1014.3 1014.0 0.0
21/10:30am 19.3 15.6 6.4 43 6.5 SSE 15 24 8 13 1014.6 1014.3 0.0
21/10:00am 18.0 14.0 6.5 47 5.7 SSE 17 28 9 15 1014.7 1014.4 0.0
21/09:30am 17.5 13.3 7.3 51 5.1 SSE 19 30 10 16 1014.9 1014.6 0.0
21/09:00am 16.3 12.1 7.3 55 4.5 SSE 19 28 10 15 1014.9 1014.6 0.0
21/08:30am 15.3 11.1 7.3 59 4.0 SSE 19 26 10 14 1014.6 1014.3 -
21/08:00am 13.8 9.9 7.3 65 3.2 S 17 26 9 14 1014.3 1014.0 -
21/07:30am 12.3 9.3 7.6 73 2.3 S 13 20 7 11 1013.7 1013.4 -
21/07:00am 11.0 7.9 7.3 78 1.8 S 13 17 7 9 1013.1 1012.8 -
21/06:30am 10.9 7.7 7.0 77 1.9 S 13 19 7 10 1012.7 1012.4 -
21/06:00am 11.3 7.4 7.2 76 2.0 S 17 24 9 13 1012.5 1012.2 -
21/05:30am 11.5 7.7 7.4 76 2.0 S 17 24 9 13 1012.1 1011.8 -
21/05:00am 11.7 7.9 7.4 75 2.1 S 17 24 9 13 1011.9 1011.6 -
21/04:30am 12.2 8.0 7.5 73 2.3 S 19 26 10 14 1011.5 1011.2 -
21/04:00am 12.3 8.5 7.6 73 2.3 S 17 22 9 12 1011.3 1011.0 -
21/03:30am 12.6 9.6 7.7 72 2.4 S 13 19 7 10 1011.3 1011.0 -
21/03:00am 12.8 9.8 7.9 72 2.4 S 13 20 7 11 1011.1 1010.8 -
21/02:30am 13.1 10.6 8.4 73 2.3 S 11 19 6 10 1010.9 1010.6 -
21/02:00am 12.8 11.1 8.3 74 2.2 S 7 9 4 5 1010.9 1010.6 -
21/01:30am 13.9 11.5 8.5 70 2.7 S 11 17 6 9 1010.6 1010.3 -
21/01:00am 14.2 - 8.6 69 2.8 - - - - - 1010.4 1010.1 -
21/12:30am 14.8 12.4 8.7 67 3.1 S 11 15 6 8 1010.0 - 0.0
21/12:00am 15.7 13.3 8.7 63 3.6 SSE 11 20 6 11 1009.6 1009.3 0.0
 
Date/Time
EDT
Temp
°C
App
Temp
°C
Dew
Point
°C
Rel
Hum
%
Delta-T
°C
Wind Press
QNH
hPa
Press
MSL
hPa
Rain since
9am
mm
Dir  Spd
km/h
Gust
km/h
Spd
kts
Gust
kts
20/11:30pm 16.4 13.6 8.6 60 4.0 S 13 20 7 11 1009.4 1009.1 0.0
20/11:00pm 17.1 13.6 8.8 58 4.3 S 17 26 9 14 1009.1 1008.8 0.0
20/10:30pm 17.8 13.8 8.4 54 4.8 S 19 28 10 15 1008.4 1008.0 0.0
20/10:00pm 18.6 14.0 8.3 51 5.3 S 22 35 12 19 1007.8 1007.4 0.0
20/09:30pm 19.4 14.9 8.4 49 5.7 SSW 22 32 12 17 1007.2 1006.8 0.0
20/09:00pm 20.1 15.2 8.4 47 6.1 SSW 24 37 13 20 1006.7 1006.3 0.0
20/08:30pm 21.3 16.3 7.9 42 7.0 SSW 24 39 13 21 1006.2 1005.8 0.0
20/08:00pm 22.7 17.0 8.4 40 7.6 SSW 28 39 15 21 1005.7 1005.3 0.0
20/07:30pm 23.6 17.5 8.1 37 8.2 SSW 30 43 16 23 1004.7 1004.3 0.0
20/07:08pm 23.8 18.0 7.8 36 8.5 S 28 46 15 25 1004.6 1004.2 0.0
20/07:00pm 23.9 17.7 7.9 36 8.5 SSW 30 41 16 22 1004.2 1003.8 0.0
20/06:30pm 24.3 17.5 7.0 33 9.0 SSW 32 57 17 31 1003.7 1003.3 0.0
20/06:00pm 24.7 18.5 7.8 34 9.0 SSW 30 48 16 26 1003.0 1002.7 0.0
20/05:39pm 25.0 18.9 8.1 34 9.0 S 30 54 16 29 1003.1 1002.8 0.0
20/05:30pm 25.4 19.1 7.5 32 9.5 SSW 30 44 16 24 1002.9 1002.6 0.0
20/05:02pm 25.6 20.0 8.6 34 9.2 SSW 28 46 15 25 1002.6 1002.3 0.0
20/05:00pm 25.7 20.2 9.1 35 9.1 SSW 28 44 15 24 1002.6 1002.3 0.0
20/04:37pm 25.1 19.5 8.6 35 8.9 SSW 28 48 15 26 1002.3 1002.0 0.0
20/04:30pm 25.1 19.6 9.0 36 8.8 SSW 28 43 15 23 1002.3 1002.0 0.0
20/04:10pm 25.5 20.0 9.3 36 8.9 SSW 28 46 15 25 1002.3 1002.0 0.0
20/04:00pm 26.1 20.8 9.9 36 9.0 SSW 28 39 15 21 1002.2 1001.9 0.0
20/03:45pm 25.3 19.7 10.0 38 8.5 SSW 30 50 16 27 1002.1 1001.8 0.0
20/03:30pm 26.2 21.5 10.8 38 8.7 SSW 26 43 14 23 1002.0 1001.7 0.0
20/03:00pm 24.9 19.4 11.8 44 7.5 SW 32 50 17 27 1001.6 1001.3 0.0
20/02:39pm 24.8 19.9 12.4 46 7.1 SSW 30 48 16 26 1001.7 1001.4 0.0
20/02:30pm 24.6 19.2 12.2 46 7.1 SW 32 48 17 26 1001.8 1001.5 0.0
20/02:00pm 25.0 18.6 13.2 48 6.9 SW 39 56 21 30 1001.6 1001.3 0.0
20/01:30pm 24.3 18.3 13.2 50 6.5 SW 37 57 20 31 1001.4 1001.1 0.0
20/01:22pm 24.8 19.1 13.0 47 6.9 SW 35 57 19 31 1001.2 1000.9 0.0
20/01:00pm 23.8 17.6 12.8 50 6.4 SW 37 52 20 28 1001.3 1001.0 0.0
20/12:30pm 24.3 19.3 15.0 56 5.6 SW 35 52 19 28 1000.8 1000.5 0.0
20/12:25pm 23.3 18.4 14.3 57 5.3 SW 33 52 18 28 1000.8 1000.5 0.0
20/12:00pm 23.3 18.6 15.9 63 4.5 SW 35 48 19 26 1000.4 1000.1 0.0
20/11:30am 21.6 16.6 16.1 71 3.3 SW 37 48 20 26 1000.0 999.7 0.0
20/11:27am 21.5 16.4 15.8 70 3.4 SW 37 48 20 26 999.9 999.6 0.0
20/11:01am 20.0 16.1 16.4 80 2.2 SW 32 52 17 28 999.4 999.1 0.0
20/11:00am 19.9 16.0 16.5 81 2.1 SW 32 52 17 28 999.4 999.1 0.0
20/10:58am 19.8 15.8 16.3 80 2.1 SW 32 52 17 28 999.3 999.0 0.0
20/10:41am 20.6 16.7 17.0 80 2.2 SW 33 44 18 24 998.9 998.6 0.0
20/10:30am 20.8 17.0 17.2 80 2.2 SW 33 46 18 25 998.7 998.4 0.0
20/10:00am 20.5 17.3 18.1 86 1.5 WSW 32 43 17 23 998.4 998.1 0.0
20/09:30am 20.6 18.5 18.9 90 1.1 WSW 28 35 15 19 997.9 997.6 0.0
20/09:18am 20.4 17.9 18.9 91 0.9 WSW 30 37 16 20 997.7 997.4 0.0
20/09:02am 21.0 19.4 19.1 89 1.2 W 26 37 14 20 997.3 997.0 0.0
20/09:00am 21.5 20.5 19.6 89 1.2 WNW 24 35 13 19 997.3 997.0 5.0
20/08:30am 20.7 20.8 18.3 86 1.5 NW 15 22 8 12 996.3 996.0 -
20/08:00am 20.1 21.3 18.2 89 1.2 NNW 9 13 5 7 996.4 996.1 -
20/07:43am 19.4 20.8 17.7 90 1.0 NW 7 9 4 5 996.4 996.1 -
20/07:30am 19.2 20.7 17.7 91 0.9 N 6 7 3 4 996.4 996.1 -
20/07:00am 18.7 19.9 17.4 92 0.8 NE 7 9 4 5 996.2 995.9 -
20/06:30am 18.2 18.8 16.7 91 0.9 ESE 9 13 5 7 995.9 995.5 -
20/06:29am 18.2 18.8 16.7 91 0.9 SE 9 15 5 8 996.0 995.6 -
20/06:11am 18.2 18.3 16.4 89 1.1 ESE 11 17 6 9 995.9 995.5 -
20/06:00am 18.3 17.2 16.3 88 1.2 S 17 26 9 14 996.7 996.4 -
20/05:39am 19.1 15.7 15.8 81 2.0 SSW 28 46 15 25 997.1 996.8 -
20/05:30am 21.7 17.4 15.5 68 3.7 WSW 32 52 17 28 997.0 996.7 -
20/05:28am 22.8 18.5 15.4 63 4.4 W 32 52 17 28 997.1 996.8 -
20/05:25am 24.0 20.8 16.3 62 4.7 W 28 39 15 21 996.8 996.5 -
20/05:00am 24.8 23.2 14.9 54 6.0 NW 17 20 9 11 995.7 995.3 -
20/04:30am 25.0 24.2 15.0 53 6.0 NW 13 17 7 9 995.0 994.6 -
20/04:00am 24.5 24.5 16.2 60 5.1 W 11 13 6 7 995.5 995.1 -
20/03:30am 24.5 25.7 16.0 59 5.2 NW 4 7 2 4 995.5 995.1 -
20/03:00am 24.0 24.8 16.3 62 4.7 NNW 7 9 4 5 995.7 995.3 -
20/02:30am 25.2 24.7 12.8 46 7.2 WNW 7 13 4 7 996.5 996.2 -
20/02:00am 28.4 25.5 6.5 25 11.7 NW 11 15 6 8 997.0 996.7 -
20/01:30am 28.4 24.2 5.9 24 11.8 NNE 17 22 9 12 996.0 995.6 -
20/01:00am 27.9 - 6.1 25 11.5 - - - - - 996.3 996.0 -
20/12:30am 27.9 24.0 5.5 24 11.6 ENE 15 20 8 11 997.1 - 0.0
20/12:00am 27.3 23.8 5.6 25 11.3 NE 13 15 7 8 998.3 998.0 0.0
 
Date/Time
EDT
Temp
°C
App
Temp
°C
Dew
Point
°C
Rel
Hum
%
Delta-T
°C
Wind Press
QNH
hPa
Press
MSL
hPa
Rain since
9am
mm
Dir  Spd
km/h
Gust
km/h
Spd
kts
Gust
kts
19/11:30pm 27.4 24.1 4.5 23 11.7 NE 11 15 6 8 999.0 998.7 0.0
19/11:00pm 28.3 24.6 4.6 22 12.2 NE 13 17 7 9 999.6 999.3 0.0
19/10:30pm 28.3 24.6 4.6 22 12.2 ENE 13 17 7 9 999.4 999.1 0.0
19/10:00pm 28.9 25.2 4.4 21 12.6 ENE 13 17 7 9 1000.5 1000.2 0.0
19/09:30pm 30.0 26.6 3.9 19 13.4 ENE 11 15 6 8 1001.1 1000.8 0.0
19/09:00pm 30.4 26.5 3.4 18 13.8 ENE 13 17 7 9 1001.6 1001.3 0.0
19/08:30pm 31.1 27.9 3.2 17 14.2 ENE 9 13 5 7 1001.8 1001.5 0.0
19/08:00pm 32.0 28.6 2.1 15 15.1 ESE 9 11 5 6 1002.0 1001.7 0.0
19/07:30pm 32.8 30.0 1.8 14 15.6 SE 6 11 3 6 1002.3 1002.0 0.0
19/07:00pm 33.1 29.6 1.0 13 16.0 S 9 13 5 7 1002.6 1002.3 0.0
19/06:30pm 33.6 30.1 1.4 13 16.2 S 9 19 5 10 1002.9 1002.6 0.0
19/06:00pm 33.8 30.6 0.5 12 16.6 S 7 13 4 7 1003.3 1003.0 0.0
19/05:30pm 33.5 29.8 0.2 12 16.4 SE 9 17 5 9 1004.0 1003.6 0.0
19/05:00pm 32.8 28.3 -0.3 12 16.1 ESE 13 20 7 11 1004.5 1004.1 0.0
19/04:30pm 33.1 29.4 -0.1 12 16.2 SSE 9 17 5 9 1005.3 1004.9 0.0
19/04:00pm 33.0 29.7 -0.2 12 16.2 WSW 7 11 4 6 1005.8 1005.4 0.0
19/03:30pm 32.4 29.0 -0.6 12 15.9 SSW 7 15 4 8 1006.5 1006.1 0.0
19/03:00pm 31.3 27.2 -0.4 13 15.3 E 11 15 6 8 1007.2 1006.8 0.0
19/02:30pm 30.6 26.9 0.1 14 14.7 SSE 9 20 5 11 1007.5 1007.1 0.0
19/02:00pm 30.2 26.6 0.7 15 14.3 SE 9 15 5 8 1008.3 1007.9 0.0
19/01:30pm 28.8 25.3 1.3 17 13.4 S 9 20 5 11 1009.0 1008.7 0.0
19/01:00pm 28.0 24.3 2.2 19 12.7 SSE 11 20 6 11 1009.7 1009.4 0.0

Other Formats:

Comma delimited format used in spreadsheet applications
http://www.bom.gov.au/fwo/IDV60801/IDV60801.94843.axf

JavaScript Object Notation format (JSON) in row-major order
http://www.bom.gov.au/fwo/IDV60801/IDV60801.94843.json